Página principal
METAR-TAF:

METAR-TAF

Aeroportos :

Aeroporto Internacional de Damasco

Damasco, Síria

latitude: 33-25N, longitude: 036-31E, altura: 608 m

Observação actual do tempo

O boletim foi feito há 52 minutos, às 05:00 UTC
Vento 6 kt de nor-nordeste
Temperatura 28°C
Humidade 32%
Pressão 1012 hPa
Visibilidade 10 km ou mais
sem nuvens abaixo de 1500 metros e sem cumulonimbus

METAR: OSDI 260500Z 02006KT CAVOK 28/10 Q1012

Hora: 08:52 (05:52 UTC)

Previsão

O boletim foi feito há 1 hora e 27 minutos, às 04:25 UTC
Previsão válida de 26 às 06 UTC a 27 às 12 UTC
Vento 10 kt de sudoeste
Visibilidade 10 km ou mais
sem nuvens abaixo de 1500 metros e sem cumulonimbus
Temporariamente
de 26 às 06 UTC a 26 às 18 UTC
Vento 15 kt de oes-sudoeste

TAF: OSDI 260425Z 2606/2712 22010KT CAVOK TEMPO 2606/2618 24015KT

Observações e previsões do tempo de mais de 4000 aeroportos (mensagens METAR e TAF).

As estações disponíveis são os pontos amarelos e vermelhos sobre o mapa.

Mova o rato sobre o mapa para ver o nome da estação.

Depois clique no ponto para visualizar as observações e previsões meteorológicas.

Para alterar o mapa : clique nos botões verdes com uma cruz preta para aumentar o zoom; no botão verde com uma pitada de zoom; ou nas setas verdes para mapas adjacentes.


METAR-TAF: